createdAt,value
2023-10-20T00:02:04.145Z,8.18
2023-10-20T00:04:30.967Z,9.65
2023-10-20T00:06:59.536Z,12.63
2023-10-20T00:09:25.995Z,14.82
2023-10-20T00:11:53.399Z,10.73
2023-10-20T00:14:20.819Z,8.70
2023-10-20T00:16:47.215Z,12.45
2023-10-20T00:19:13.825Z,10.93
2023-10-20T00:21:40.605Z,11.63
2023-10-20T00:24:07.456Z,10.88
2023-10-20T00:26:33.853Z,9.95
2023-10-20T00:29:00.229Z,4.72
2023-10-20T00:31:26.660Z,12.43
2023-10-20T00:33:53.085Z,6.65
2023-10-20T00:36:19.428Z,10.38
2023-10-20T00:38:45.818Z,9.93
2023-10-20T00:41:12.388Z,9.50
2023-10-20T00:43:39.586Z,13.98
2023-10-20T00:46:08.328Z,16.45
2023-10-20T00:48:38.360Z,12.93
2023-10-20T00:51:06.788Z,10.77
2023-10-20T00:53:35.802Z,8.18
2023-10-20T00:56:04.966Z,8.30
2023-10-20T00:58:32.119Z,11.25
2023-10-20T01:00:58.933Z,10.98
2023-10-20T01:03:25.788Z,12.60
2023-10-20T01:05:52.807Z,9.75
2023-10-20T01:08:19.371Z,11.15
2023-10-20T01:10:45.741Z,13.55
2023-10-20T01:13:12.109Z,12.80
2023-10-20T01:15:38.816Z,11.85
2023-10-20T01:18:05.777Z,11.20
2023-10-20T01:20:32.314Z,12.55
2023-10-20T01:23:00.503Z,12.25
2023-10-20T01:25:28.040Z,12.40
2023-10-20T01:27:54.756Z,14.20
2023-10-20T01:30:22.108Z,13.52
2023-10-20T01:32:48.998Z,13.63
2023-10-20T01:35:15.578Z,13.43
2023-10-20T01:37:42.232Z,14.95
2023-10-20T01:40:10.820Z,17.08
2023-10-20T01:42:37.265Z,13.90
2023-10-20T01:45:04.103Z,14.55
2023-10-20T01:47:30.530Z,13.77
2023-10-20T01:49:56.942Z,17.45
2023-10-20T01:52:23.482Z,18.70
2023-10-20T01:54:49.857Z,16.67
2023-10-20T01:57:16.283Z,14.48
2023-10-20T01:59:42.649Z,14.45
2023-10-20T02:02:10.053Z,17.02
2023-10-20T02:04:36.568Z,13.02
2023-10-20T02:07:03.031Z,17.33
2023-10-20T02:09:29.896Z,15.30
2023-10-20T02:11:59.365Z,19.25
2023-10-20T02:14:26.820Z,19.60
2023-10-20T02:16:53.577Z,16.27
2023-10-20T02:19:19.980Z,19.83
2023-10-20T02:21:48.354Z,17.73
2023-10-20T02:24:15.026Z,14.73
2023-10-20T02:26:41.862Z,18.60
2023-10-20T02:29:08.313Z,18.80
2023-10-20T02:31:34.781Z,17.38
2023-10-20T02:34:01.215Z,16.05
2023-10-20T02:36:27.576Z,18.20
2023-10-20T02:38:54.262Z,17.58
2023-10-20T02:41:21.372Z,15.13
2023-10-20T02:43:48.117Z,14.63
2023-10-20T02:46:14.574Z,20.13
2023-10-20T02:48:41.241Z,17.33
2023-10-20T02:51:11.704Z,15.65
2023-10-20T02:53:41.225Z,20.02
2023-10-20T02:56:15.479Z,21.77
2023-10-20T02:58:45.502Z,15.00
2023-10-20T03:01:16.365Z,18.40
2023-10-20T03:03:43.178Z,18.85
2023-10-20T03:06:09.785Z,22.35
2023-10-20T03:08:39.130Z,20.13
2023-10-20T03:11:06.802Z,22.13
2023-10-20T03:13:33.457Z,21.95
2023-10-20T03:16:00.351Z,17.45
2023-10-20T03:18:27.230Z,19.33
2023-10-20T03:20:53.659Z,21.83
2023-10-20T03:23:21.677Z,12.07
2023-10-20T03:25:48.336Z,22.50
2023-10-20T03:28:14.792Z,19.17
2023-10-20T03:30:42.872Z,19.10
2023-10-20T03:33:11.967Z,20.25
2023-10-20T03:35:38.535Z,23.88
2023-10-20T03:38:06.081Z,19.58
2023-10-20T03:40:37.358Z,19.98
2023-10-20T03:43:06.116Z,22.77
2023-10-20T03:45:41.692Z,22.90
2023-10-20T03:48:10.403Z,16.55
2023-10-20T03:50:46.355Z,22.55
2023-10-20T03:53:22.004Z,20.08
2023-10-20T03:56:02.560Z,19.20
2023-10-20T03:58:31.839Z,21.58
2023-10-20T04:01:02.414Z,24.55
2023-10-20T04:03:31.227Z,22.58
2023-10-20T04:05:58.022Z,21.85
2023-10-20T04:08:24.872Z,18.77
2023-10-20T04:10:58.730Z,18.98
2023-10-20T04:13:25.436Z,21.52
2023-10-20T04:15:53.845Z,23.10
2023-10-20T04:18:21.331Z,20.70
2023-10-20T04:20:50.814Z,19.50
2023-10-20T04:23:21.526Z,20.08
2023-10-20T04:25:53.758Z,20.10
2023-10-20T04:28:21.840Z,24.52
2023-10-20T04:31:06.888Z,20.08
2023-10-20T04:33:51.726Z,14.70
2023-10-20T04:36:36.497Z,18.88
2023-10-20T04:39:21.368Z,22.27
2023-10-20T04:41:57.680Z,20.80
2023-10-20T04:44:24.754Z,19.38
2023-10-20T04:47:01.324Z,19.25
2023-10-20T04:49:47.227Z,19.63
2023-10-20T04:52:29.084Z,18.13
2023-10-20T04:55:01.048Z,18.25
2023-10-20T04:57:45.686Z,21.27
2023-10-20T05:00:13.497Z,16.65
2023-10-20T05:02:47.101Z,15.57
2023-10-20T05:05:28.167Z,19.67
2023-10-20T05:07:58.425Z,13.48
2023-10-20T05:10:25.126Z,17.15
2023-10-20T05:12:52.105Z,16.98
2023-10-20T05:15:18.952Z,16.55
2023-10-20T05:17:47.337Z,16.70
2023-10-20T05:20:21.154Z,17.52
2023-10-20T05:22:48.420Z,14.73
2023-10-20T05:25:15.322Z,17.10
2023-10-20T05:27:42.132Z,16.83
2023-10-20T05:30:10.336Z,17.17
2023-10-20T05:32:38.685Z,14.88
2023-10-20T05:35:08.358Z,14.15
2023-10-20T05:37:35.187Z,15.18
2023-10-20T05:40:02.198Z,16.40
2023-10-20T05:42:28.981Z,16.70
2023-10-20T05:45:04.731Z,17.10
2023-10-20T05:47:32.257Z,19.35
2023-10-20T05:50:00.237Z,17.73
2023-10-20T05:52:26.717Z,19.63
2023-10-20T05:54:54.870Z,18.75
2023-10-20T05:57:21.316Z,21.35
2023-10-20T05:59:47.843Z,14.68
2023-10-20T06:02:14.418Z,17.25
2023-10-20T06:04:40.885Z,19.13
2023-10-20T06:07:08.214Z,21.42
2023-10-20T06:09:34.649Z,19.80
2023-10-20T06:12:01.343Z,19.13
2023-10-20T06:14:28.049Z,16.65
2023-10-20T06:16:54.492Z,20.67
2023-10-20T06:19:20.947Z,16.92
2023-10-20T06:21:47.374Z,15.23
2023-10-20T06:24:15.090Z,19.05
2023-10-20T06:26:42.072Z,18.70
2023-10-20T06:29:31.816Z,16.45
2023-10-20T06:32:07.352Z,20.08
2023-10-20T06:34:36.153Z,18.95
2023-10-20T06:37:19.758Z,16.30
2023-10-20T06:39:46.220Z,18.45
2023-10-20T06:42:12.573Z,19.85
2023-10-20T06:44:39.322Z,14.00
2023-10-20T06:47:06.005Z,17.20
2023-10-20T06:49:33.730Z,17.92
2023-10-20T06:52:04.649Z,18.75
2023-10-20T06:54:31.868Z,15.25
2023-10-20T06:56:58.749Z,13.82
2023-10-20T06:59:25.583Z,12.55
2023-10-20T07:01:52.244Z,11.05
2023-10-20T07:04:18.689Z,15.60
2023-10-20T07:06:45.102Z,12.48
2023-10-20T07:09:15.396Z,14.15
2023-10-20T07:11:43.838Z,12.43
2023-10-20T07:14:13.431Z,12.63
2023-10-20T07:16:39.839Z,11.75
2023-10-20T07:19:07.306Z,12.45
2023-10-20T07:21:33.715Z,10.32
2023-10-20T07:24:00.938Z,10.40
2023-10-20T07:26:27.437Z,11.80
2023-10-20T07:28:54.449Z,10.18
2023-10-20T07:31:22.836Z,8.63
2023-10-20T07:33:52.917Z,7.45
2023-10-20T07:36:20.539Z,10.80
2023-10-20T07:38:47.056Z,8.85
2023-10-20T07:41:14.577Z,7.22
2023-10-20T07:43:42.694Z,5.22
2023-10-20T07:46:17.096Z,6.57
2023-10-20T07:48:43.956Z,5.45
2023-10-20T07:51:10.494Z,7.82
2023-10-20T07:53:37.067Z,6.35
2023-10-20T07:56:04.045Z,6.38
2023-10-20T07:58:30.649Z,6.18
2023-10-20T08:00:57.080Z,5.75
2023-10-20T08:03:24.587Z,4.68
2023-10-20T08:05:51.418Z,5.05
2023-10-20T08:08:18.401Z,5.38
2023-10-20T08:10:44.881Z,5.50
2023-10-20T08:13:11.387Z,5.15
2023-10-20T08:15:39.452Z,2.83
2023-10-20T08:18:08.354Z,3.78
2023-10-20T08:20:35.271Z,3.70
2023-10-20T08:23:04.032Z,3.05
2023-10-20T08:25:30.413Z,3.13
2023-10-20T08:27:56.769Z,4.85
2023-10-20T08:30:23.241Z,4.70
2023-10-20T08:32:49.712Z,4.07
2023-10-20T08:35:16.416Z,2.42
2023-10-20T08:37:42.906Z,3.42
2023-10-20T08:40:13.391Z,5.57
2023-10-20T08:42:40.499Z,3.60
2023-10-20T08:45:14.577Z,3.13
2023-10-20T08:47:44.466Z,2.10
2023-10-20T08:50:11.896Z,2.22
2023-10-20T08:52:40.322Z,3.40
2023-10-20T08:55:08.607Z,3.35
2023-10-20T08:57:35.014Z,2.35
2023-10-20T09:00:01.430Z,3.15
2023-10-20T09:02:40.357Z,1.88
2023-10-20T09:05:08.065Z,2.65
2023-10-20T09:07:35.069Z,3.72
2023-10-20T09:10:02.528Z,4.05
2023-10-20T09:12:33.386Z,3.65
2023-10-20T09:14:59.937Z,2.58
2023-10-20T09:17:26.955Z,1.70
2023-10-20T09:20:05.407Z,2.25
2023-10-20T09:22:31.914Z,2.45
2023-10-20T09:24:58.451Z,2.50
2023-10-20T09:27:25.894Z,1.65
2023-10-20T09:29:53.342Z,1.50
2023-10-20T09:32:20.108Z,1.35
2023-10-20T09:34:46.563Z,0.77
2023-10-20T09:37:15.619Z,1.48
2023-10-20T09:39:44.978Z,1.90
2023-10-20T09:42:15.134Z,1.63
2023-10-20T09:44:53.591Z,1.13
2023-10-20T09:47:27.292Z,1.70
2023-10-20T09:49:54.516Z,1.08
2023-10-20T09:52:21.003Z,3.03
2023-10-20T09:54:51.329Z,0.73
2023-10-20T09:57:21.710Z,1.00
2023-10-20T09:59:54.654Z,1.67
2023-10-20T10:02:31.603Z,0.82
2023-10-20T10:04:59.101Z,1.40
2023-10-20T10:07:35.232Z,2.30
2023-10-20T10:10:03.915Z,1.48
2023-10-20T10:12:32.515Z,1.90
2023-10-20T10:15:08.850Z,0.82
2023-10-20T10:17:52.830Z,6.68
2023-10-20T10:20:21.136Z,0.63
2023-10-20T10:22:47.529Z,1.50
2023-10-20T10:25:13.978Z,1.08
2023-10-20T10:27:40.346Z,2.17
2023-10-20T10:30:07.497Z,1.50
2023-10-20T10:32:37.829Z,0.95
2023-10-20T10:35:05.307Z,1.05
2023-10-20T10:37:34.887Z,0.68
2023-10-20T10:40:20.146Z,0.93
2023-10-20T10:42:51.360Z,1.80
2023-10-20T10:45:25.239Z,0.40
2023-10-20T10:48:03.885Z,0.70
2023-10-20T10:50:30.503Z,1.02
2023-10-20T10:52:57.055Z,1.40
2023-10-20T10:55:25.495Z,1.35
2023-10-20T10:57:52.315Z,1.85
2023-10-20T11:00:19.719Z,0.90
2023-10-20T11:02:47.109Z,1.83
2023-10-20T11:05:14.313Z,1.10
2023-10-20T11:07:41.400Z,1.45
2023-10-20T11:10:08.999Z,0.95
2023-10-20T11:12:36.155Z,1.65
2023-10-20T11:15:04.982Z,1.00
2023-10-20T11:17:32.322Z,0.70
2023-10-20T11:19:59.149Z,1.00
2023-10-20T11:22:25.751Z,1.05
2023-10-20T11:24:54.013Z,0.77
2023-10-20T11:27:20.973Z,1.95
2023-10-20T11:29:58.429Z,0.20
2023-10-20T11:32:26.849Z,0.95
2023-10-20T11:34:54.026Z,0.60
2023-10-20T11:37:20.421Z,1.00
2023-10-20T11:39:46.805Z,2.28
2023-10-20T11:42:13.336Z,1.00
2023-10-20T11:44:40.020Z,0.88
2023-10-20T11:47:07.437Z,0.90
2023-10-20T11:49:33.833Z,0.40
2023-10-20T11:52:00.300Z,1.67
2023-10-20T11:54:26.827Z,0.30
2023-10-20T11:56:53.214Z,0.80
2023-10-20T11:59:19.844Z,0.68
2023-10-20T12:01:46.367Z,0.50
2023-10-20T12:04:13.016Z,0.85
2023-10-20T12:06:39.725Z,0.28
2023-10-20T12:09:10.185Z,0.52
2023-10-20T12:11:38.473Z,0.60
2023-10-20T12:14:05.838Z,0.98
2023-10-20T12:16:32.880Z,0.55
2023-10-20T12:19:03.116Z,0.60
2023-10-20T12:21:30.754Z,0.57
2023-10-20T12:23:57.676Z,0.40
2023-10-20T12:26:24.625Z,1.15
2023-10-20T12:28:51.869Z,0.35
2023-10-20T12:31:19.627Z,1.17
2023-10-20T12:33:46.893Z,0.60
2023-10-20T12:36:19.584Z,0.40
2023-10-20T12:38:46.271Z,1.25
2023-10-20T12:41:13.251Z,1.52
2023-10-20T12:43:39.706Z,0.52
2023-10-20T12:46:06.101Z,0.75
2023-10-20T12:48:32.877Z,0.70
2023-10-20T12:50:59.390Z,0.98
2023-10-20T12:53:26.013Z,1.15
2023-10-20T12:55:55.540Z,0.93
2023-10-20T12:58:21.948Z,0.90
2023-10-20T13:00:48.319Z,0.40
2023-10-20T13:03:14.820Z,0.65
2023-10-20T13:05:41.429Z,0.77
2023-10-20T13:08:07.848Z,0.75
2023-10-20T13:10:34.293Z,0.73
2023-10-20T13:13:01.772Z,0.50
2023-10-20T13:15:29.881Z,1.17
2023-10-20T13:17:56.984Z,1.00
2023-10-20T13:20:23.904Z,0.70
2023-10-20T13:22:50.405Z,0.32
2023-10-20T13:25:16.963Z,1.02
2023-10-20T13:27:43.793Z,2.13
2023-10-20T13:30:10.498Z,0.80
2023-10-20T13:32:37.013Z,0.70
2023-10-20T13:35:04.030Z,0.63
2023-10-20T13:37:30.494Z,1.17
2023-10-20T13:39:57.146Z,0.80
2023-10-20T13:42:23.847Z,1.20
2023-10-20T13:44:50.338Z,0.93
2023-10-20T13:47:16.810Z,1.75
2023-10-20T13:49:43.319Z,1.40
2023-10-20T13:52:09.760Z,1.10
2023-10-20T13:54:36.663Z,0.80
2023-10-20T13:57:03.570Z,0.98
2023-10-20T13:59:30.282Z,1.42
2023-10-20T14:01:56.846Z,1.17
2023-10-20T14:04:24.772Z,1.38
2023-10-20T14:06:52.709Z,0.98
2023-10-20T14:09:19.348Z,1.30
2023-10-20T14:11:46.727Z,1.02
2023-10-20T14:14:13.280Z,0.52
2023-10-20T14:16:39.992Z,1.27
2023-10-20T14:19:07.547Z,0.90
2023-10-20T14:21:33.952Z,1.65
2023-10-20T14:24:00.941Z,1.48
2023-10-20T14:26:27.442Z,1.23
2023-10-20T14:28:53.830Z,0.98
2023-10-20T14:31:21.704Z,1.23
2023-10-20T14:33:48.184Z,3.10
2023-10-20T14:36:17.958Z,3.30
2023-10-20T14:38:44.415Z,2.13
2023-10-20T14:41:10.840Z,1.65
2023-10-20T14:43:38.048Z,1.88
2023-10-20T14:46:06.736Z,1.02
2023-10-20T14:48:34.197Z,0.80
2023-10-20T14:51:01.431Z,0.95
2023-10-20T14:53:27.886Z,0.45
2023-10-20T14:55:54.608Z,1.38
2023-10-20T14:58:20.974Z,1.25
2023-10-20T15:00:49.163Z,1.15
2023-10-20T15:03:16.711Z,1.75
2023-10-20T15:05:44.281Z,1.05
2023-10-20T15:08:10.854Z,1.20
2023-10-20T15:10:37.638Z,1.38
2023-10-20T15:13:05.053Z,1.60
2023-10-20T15:15:32.476Z,2.53
2023-10-20T15:17:59.509Z,2.55
2023-10-20T15:20:26.439Z,1.50
2023-10-20T15:22:55.748Z,2.05
2023-10-20T15:25:29.684Z,2.83
2023-10-20T15:27:56.065Z,2.55
2023-10-20T15:30:23.140Z,3.67
2023-10-20T15:32:49.776Z,4.18
2023-10-20T15:35:16.867Z,2.65
2023-10-20T15:37:43.237Z,1.58
2023-10-20T15:40:18.824Z,2.33
2023-10-20T15:42:45.831Z,2.97
2023-10-20T15:45:12.267Z,1.27
2023-10-20T15:47:39.055Z,1.83
2023-10-20T15:50:06.102Z,2.28
2023-10-20T15:52:32.516Z,1.70
2023-10-20T15:54:58.908Z,1.65
2023-10-20T15:57:26.130Z,2.30
2023-10-20T15:59:57.249Z,1.80
2023-10-20T16:04:54.568Z,2.92
2023-10-20T16:07:21.526Z,5.05
2023-10-20T16:09:48.618Z,3.13
2023-10-20T16:12:16.077Z,4.00
2023-10-20T16:14:43.253Z,3.25
2023-10-20T16:17:10.494Z,2.20
2023-10-20T16:19:38.474Z,3.33
2023-10-20T16:22:05.495Z,3.92
2023-10-20T16:24:31.991Z,3.47
2023-10-20T16:26:59.885Z,2.97
2023-10-20T16:29:26.472Z,3.40
2023-10-20T16:31:53.018Z,5.30
2023-10-20T16:34:23.992Z,3.45
2023-10-20T16:39:19.961Z,3.55
2023-10-20T16:41:46.612Z,4.13
2023-10-20T16:44:13.649Z,3.80
2023-10-20T16:46:41.385Z,5.63
2023-10-20T16:49:08.261Z,4.80
2023-10-20T16:51:34.925Z,6.05
2023-10-20T16:54:01.872Z,6.50
2023-10-20T16:56:28.250Z,55.10
2023-10-20T16:58:54.962Z,11.55
2023-10-20T17:01:22.877Z,11.15
2023-10-20T17:03:49.466Z,7.55
2023-10-20T17:06:15.928Z,6.78
2023-10-20T17:08:43.287Z,5.90
2023-10-20T17:11:11.319Z,5.43
2023-10-20T17:13:37.700Z,7.53
2023-10-20T17:16:08.286Z,6.85
2023-10-20T17:18:35.322Z,6.88
2023-10-20T17:21:09.455Z,7.78
2023-10-20T17:23:36.888Z,10.45
2023-10-20T17:26:06.260Z,10.60
2023-10-20T17:28:33.356Z,8.93
2023-10-20T17:31:03.468Z,12.20
2023-10-20T17:33:30.120Z,14.40
2023-10-20T17:36:04.263Z,9.50
2023-10-20T17:38:30.853Z,11.05
2023-10-20T17:41:04.645Z,11.27
2023-10-20T17:43:32.254Z,13.32
2023-10-20T17:46:03.692Z,10.75
2023-10-20T17:48:30.238Z,13.07
2023-10-20T17:51:00.958Z,12.00
2023-10-20T17:53:28.448Z,8.95
2023-10-20T17:55:55.088Z,8.60
2023-10-20T17:58:21.453Z,9.85
2023-10-20T18:00:47.871Z,7.88
2023-10-20T18:03:14.380Z,9.88
2023-10-20T18:05:40.951Z,8.18
2023-10-20T18:08:07.909Z,9.30
2023-10-20T18:10:35.595Z,11.27
2023-10-20T18:13:02.129Z,16.40
2023-10-20T18:15:35.538Z,10.85
2023-10-20T18:18:01.962Z,10.13
2023-10-20T18:20:31.403Z,12.93
2023-10-20T18:22:57.874Z,9.35
2023-10-20T18:25:24.267Z,11.32
2023-10-20T18:27:50.616Z,10.07
2023-10-20T18:30:17.262Z,8.55
2023-10-20T18:32:46.520Z,11.18
2023-10-20T18:35:12.916Z,9.52
2023-10-20T18:37:40.456Z,11.88
2023-10-20T18:40:09.277Z,13.27
2023-10-20T18:42:35.662Z,8.20
2023-10-20T18:45:02.084Z,6.18
2023-10-20T18:47:28.576Z,9.20
2023-10-20T18:49:55.061Z,8.55
2023-10-20T18:52:23.288Z,10.15
2023-10-20T18:54:49.814Z,9.10
2023-10-20T18:57:16.199Z,12.35
2023-10-20T18:59:42.623Z,10.63
2023-10-20T19:02:09.072Z,11.45
2023-10-20T19:04:35.496Z,8.20
2023-10-20T19:07:04.526Z,9.45
2023-10-20T19:09:30.916Z,8.13
2023-10-20T19:11:59.784Z,8.50
2023-10-20T19:14:28.739Z,6.68
2023-10-20T19:16:55.144Z,8.93
2023-10-20T19:19:21.829Z,10.43
2023-10-20T19:21:48.347Z,5.95
2023-10-20T19:24:15.090Z,6.95
2023-10-20T19:26:41.623Z,7.40
2023-10-20T19:29:08.013Z,10.98
2023-10-20T19:31:34.493Z,7.85
2023-10-20T19:34:01.533Z,8.68
2023-10-20T19:36:28.311Z,6.53
2023-10-20T19:38:54.781Z,7.32
2023-10-20T19:41:21.400Z,9.90
2023-10-20T19:43:47.749Z,6.88
2023-10-20T19:46:14.913Z,5.75
2023-10-20T19:48:41.582Z,9.30
2023-10-20T19:51:08.078Z,6.95
2023-10-20T19:53:34.508Z,6.53
2023-10-20T19:56:00.972Z,7.43
2023-10-20T19:58:27.334Z,8.35
2023-10-20T20:00:58.736Z,14.27
2023-10-20T20:03:25.700Z,7.57
2023-10-20T20:05:52.223Z,7.15
2023-10-20T20:08:18.605Z,7.50
2023-10-20T20:10:45.005Z,6.70
2023-10-20T20:13:11.437Z,8.02
2023-10-20T20:15:38.087Z,9.02
2023-10-20T20:18:04.798Z,6.47
2023-10-20T20:20:31.357Z,8.90
2023-10-20T20:22:57.869Z,6.25
2023-10-20T20:25:24.253Z,7.78
2023-10-20T20:27:50.692Z,6.05
2023-10-20T20:30:17.189Z,5.97
2023-10-20T20:32:44.507Z,5.72
2023-10-20T20:35:11.036Z,5.25
2023-10-20T20:37:37.414Z,6.47
2023-10-20T20:40:04.370Z,4.75
2023-10-20T20:42:30.729Z,6.70
2023-10-20T20:44:57.217Z,6.82
2023-10-20T20:47:23.622Z,6.38
2023-10-20T20:49:50.003Z,7.53
2023-10-20T20:52:17.273Z,6.45
2023-10-20T20:54:43.737Z,7.07
2023-10-20T20:57:10.123Z,6.38
2023-10-20T20:59:36.677Z,5.60
2023-10-20T21:02:03.688Z,6.72
2023-10-20T21:04:30.144Z,5.15
2023-10-20T21:06:56.630Z,5.30
2023-10-20T21:09:24.351Z,4.50
2023-10-20T21:11:50.906Z,5.13
2023-10-20T21:14:17.335Z,5.20
2023-10-20T21:16:43.896Z,3.58
2023-10-20T21:19:10.264Z,4.63
2023-10-20T21:21:37.198Z,4.35
2023-10-20T21:24:06.219Z,4.43
2023-10-20T21:26:32.736Z,3.92
2023-10-20T21:28:59.179Z,3.83
2023-10-20T21:31:25.602Z,4.85
2023-10-20T21:33:51.976Z,4.70
2023-10-20T21:36:18.390Z,3.47
2023-10-20T21:38:44.861Z,4.95
2023-10-20T21:41:11.495Z,3.00
2023-10-20T21:43:37.845Z,3.72
2023-10-20T21:46:04.870Z,4.05
2023-10-20T21:48:31.446Z,4.60
2023-10-20T21:50:59.789Z,4.43
2023-10-20T21:53:26.727Z,4.75
2023-10-20T21:56:02.784Z,4.43
2023-10-20T21:58:30.050Z,5.38
2023-10-20T22:00:56.742Z,4.88
2023-10-20T22:03:23.283Z,3.83
2023-10-20T22:05:51.472Z,4.47
2023-10-20T22:08:17.864Z,5.00
2023-10-20T22:10:44.386Z,6.10
2023-10-20T22:13:10.807Z,4.95
2023-10-20T22:15:37.557Z,4.10
2023-10-20T22:18:06.918Z,3.67
2023-10-20T22:20:34.118Z,4.55
2023-10-20T22:23:00.798Z,2.78
2023-10-20T22:25:27.195Z,6.00
2023-10-20T22:27:53.720Z,4.40
2023-10-20T22:30:20.128Z,6.72
2023-10-20T22:32:46.645Z,4.80
2023-10-20T22:35:13.262Z,4.60
2023-10-20T22:37:39.628Z,4.63
2023-10-20T22:40:07.041Z,3.97
2023-10-20T22:42:33.574Z,2.60
2023-10-20T22:45:00.006Z,3.97
2023-10-20T22:47:26.425Z,4.78
2023-10-20T22:49:53.051Z,6.55
2023-10-20T22:52:19.407Z,5.97
2023-10-20T22:54:45.761Z,2.22
2023-10-20T22:57:12.185Z,2.20
2023-10-20T22:59:38.615Z,4.93
2023-10-20T23:02:05.097Z,3.40
2023-10-20T23:04:31.588Z,5.88
2023-10-20T23:06:58.275Z,4.03
2023-10-20T23:09:24.680Z,4.43
2023-10-20T23:11:52.131Z,8.13
2023-10-20T23:14:18.587Z,4.18
2023-10-20T23:16:45.339Z,4.93
2023-10-20T23:19:11.809Z,4.05
2023-10-20T23:21:38.149Z,3.95
2023-10-20T23:24:04.925Z,4.65
2023-10-20T23:26:31.320Z,6.43
2023-10-20T23:28:58.064Z,9.27
2023-10-20T23:31:24.591Z,3.80
2023-10-20T23:33:51.861Z,6.82
2023-10-20T23:36:18.552Z,5.20
2023-10-20T23:38:45.134Z,3.08
2023-10-20T23:41:11.528Z,3.70
2023-10-20T23:43:37.954Z,3.72
2023-10-20T23:46:04.437Z,4.22
2023-10-20T23:48:31.025Z,5.72
2023-10-20T23:50:57.578Z,2.80
2023-10-20T23:53:23.995Z,4.75
2023-10-20T23:55:50.333Z,7.65
2023-10-20T23:58:16.724Z,5.18
